sensor_id;sensor_type;location;lat;lon;timestamp;temperature;humidity
40758;DHT22;26462;47.384;19.218;2023-06-22T00:01:21;23.20;99.90
40758;DHT22;26462;47.384;19.218;2023-06-22T00:03:49;23.10;99.90
40758;DHT22;26462;47.384;19.218;2023-06-22T00:06:17;23.10;99.90
40758;DHT22;26462;47.384;19.218;2023-06-22T00:08:44;23.30;99.90
40758;DHT22;26462;47.384;19.218;2023-06-22T00:11:12;23.40;99.90
40758;DHT22;26462;47.384;19.218;2023-06-22T00:13:39;23.40;99.90
40758;DHT22;26462;47.384;19.218;2023-06-22T00:16:06;23.40;99.90
40758;DHT22;26462;47.384;19.218;2023-06-22T00:18:33;23.30;99.90
40758;DHT22;26462;47.384;19.218;2023-06-22T00:21:00;23.40;99.90
40758;DHT22;26462;47.384;19.218;2023-06-22T00:23:28;23.40;99.90
40758;DHT22;26462;47.384;19.218;2023-06-22T00:25:55;23.40;99.90
40758;DHT22;26462;47.384;19.218;2023-06-22T00:28:22;23.50;99.90
40758;DHT22;26462;47.384;19.218;2023-06-22T00:30:49;23.40;99.90
40758;DHT22;26462;47.384;19.218;2023-06-22T00:33:18;23.30;99.90
40758;DHT22;26462;47.384;19.218;2023-06-22T00:35:45;23.40;99.90
40758;DHT22;26462;47.384;19.218;2023-06-22T00:38:12;23.40;99.90
40758;DHT22;26462;47.384;19.218;2023-06-22T00:40:41;23.40;99.90
40758;DHT22;26462;47.384;19.218;2023-06-22T00:43:08;23.20;99.90
40758;DHT22;26462;47.384;19.218;2023-06-22T00:45:35;23.20;99.90
40758;DHT22;26462;47.384;19.218;2023-06-22T00:48:03;23.30;99.90
40758;DHT22;26462;47.384;19.218;2023-06-22T00:50:32;23.20;99.90
40758;DHT22;26462;47.384;19.218;2023-06-22T00:53:07;23.20;99.90
40758;DHT22;26462;47.384;19.218;2023-06-22T00:55:41;23.30;99.90
40758;DHT22;26462;47.384;19.218;2023-06-22T00:58:19;23.30;99.90
40758;DHT22;26462;47.384;19.218;2023-06-22T01:00:48;23.20;99.90
40758;DHT22;26462;47.384;19.218;2023-06-22T01:03:16;23.20;99.90
40758;DHT22;26462;47.384;19.218;2023-06-22T01:05:45;23.20;99.90
40758;DHT22;26462;47.384;19.218;2023-06-22T01:08:34;23.20;99.90
40758;DHT22;26462;47.384;19.218;2023-06-22T01:11:36;23.20;99.90
40758;DHT22;26462;47.384;19.218;2023-06-22T01:14:15;23.20;99.90
40758;DHT22;26462;47.384;19.218;2023-06-22T01:16:46;23.20;99.90
40758;DHT22;26462;47.384;19.218;2023-06-22T01:21:57;23.10;99.90
40758;DHT22;26462;47.384;19.218;2023-06-22T01:24:53;23.20;99.90
40758;DHT22;26462;47.384;19.218;2023-06-22T01:30:45;23.10;99.90
40758;DHT22;26462;47.384;19.218;2023-06-22T01:33:13;23.10;99.90
40758;DHT22;26462;47.384;19.218;2023-06-22T01:35:41;23.20;99.90
40758;DHT22;26462;47.384;19.218;2023-06-22T01:38:09;23.20;99.90
40758;DHT22;26462;47.384;19.218;2023-06-22T01:40:37;23.10;99.90
40758;DHT22;26462;47.384;19.218;2023-06-22T01:43:05;23.10;99.90
40758;DHT22;26462;47.384;19.218;2023-06-22T01:45:35;23.20;99.90
40758;DHT22;26462;47.384;19.218;2023-06-22T01:48:02;23.10;99.90
40758;DHT22;26462;47.384;19.218;2023-06-22T01:50:30;23.10;99.90
40758;DHT22;26462;47.384;19.218;2023-06-22T01:52:57;23.10;99.90
40758;DHT22;26462;47.384;19.218;2023-06-22T01:55:25;23.10;99.90
40758;DHT22;26462;47.384;19.218;2023-06-22T01:57:53;23.10;99.90
40758;DHT22;26462;47.384;19.218;2023-06-22T02:00:21;23.00;99.90
40758;DHT22;26462;47.384;19.218;2023-06-22T02:03:21;23.00;99.90
40758;DHT22;26462;47.384;19.218;2023-06-22T02:05:58;23.00;99.90
40758;DHT22;26462;47.384;19.218;2023-06-22T02:08:38;23.00;99.90
40758;DHT22;26462;47.384;19.218;2023-06-22T02:11:09;23.00;99.90
40758;DHT22;26462;47.384;19.218;2023-06-22T02:13:37;22.80;99.90
40758;DHT22;26462;47.384;19.218;2023-06-22T02:16:11;22.90;99.90
40758;DHT22;26462;47.384;19.218;2023-06-22T02:18:46;22.90;99.90
40758;DHT22;26462;47.384;19.218;2023-06-22T02:21:13;22.90;99.90
40758;DHT22;26462;47.384;19.218;2023-06-22T02:23:41;22.90;99.90
40758;DHT22;26462;47.384;19.218;2023-06-22T02:26:08;22.90;99.90
40758;DHT22;26462;47.384;19.218;2023-06-22T02:28:35;22.90;99.90
40758;DHT22;26462;47.384;19.218;2023-06-22T02:31:02;22.80;99.90
40758;DHT22;26462;47.384;19.218;2023-06-22T02:33:30;22.90;99.90
40758;DHT22;26462;47.384;19.218;2023-06-22T02:35:57;22.90;99.90
40758;DHT22;26462;47.384;19.218;2023-06-22T02:38:24;22.80;99.90
40758;DHT22;26462;47.384;19.218;2023-06-22T02:40:51;22.70;99.90
40758;DHT22;26462;47.384;19.218;2023-06-22T02:43:19;22.60;99.90
40758;DHT22;26462;47.384;19.218;2023-06-22T02:45:46;22.80;99.90
40758;DHT22;26462;47.384;19.218;2023-06-22T02:48:13;22.80;99.90
40758;DHT22;26462;47.384;19.218;2023-06-22T02:50:41;22.80;99.90
40758;DHT22;26462;47.384;19.218;2023-06-22T02:53:08;22.70;99.90
40758;DHT22;26462;47.384;19.218;2023-06-22T02:55:39;22.80;99.90
40758;DHT22;26462;47.384;19.218;2023-06-22T02:58:08;22.80;99.90
40758;DHT22;26462;47.384;19.218;2023-06-22T03:00:37;22.80;99.90
40758;DHT22;26462;47.384;19.218;2023-06-22T03:03:06;22.70;99.90
40758;DHT22;26462;47.384;19.218;2023-06-22T03:05:33;22.70;99.90
40758;DHT22;26462;47.384;19.218;2023-06-22T03:08:02;22.70;99.90
40758;DHT22;26462;47.384;19.218;2023-06-22T03:10:33;22.80;99.90
40758;DHT22;26462;47.384;19.218;2023-06-22T03:13:01;22.80;99.90
40758;DHT22;26462;47.384;19.218;2023-06-22T03:15:28;22.70;99.90
40758;DHT22;26462;47.384;19.218;2023-06-22T03:17:56;22.80;99.90
40758;DHT22;26462;47.384;19.218;2023-06-22T03:20:24;22.70;99.90
40758;DHT22;26462;47.384;19.218;2023-06-22T03:22:54;22.70;99.90
40758;DHT22;26462;47.384;19.218;2023-06-22T03:25:22;22.70;99.90
40758;DHT22;26462;47.384;19.218;2023-06-22T03:27:49;22.70;99.90
40758;DHT22;26462;47.384;19.218;2023-06-22T03:30:17;22.70;99.90
40758;DHT22;26462;47.384;19.218;2023-06-22T03:32:45;22.50;99.90
40758;DHT22;26462;47.384;19.218;2023-06-22T03:35:13;22.70;99.90
40758;DHT22;26462;47.384;19.218;2023-06-22T03:37:41;22.60;99.90
40758;DHT22;26462;47.384;19.218;2023-06-22T03:40:08;22.70;99.90
40758;DHT22;26462;47.384;19.218;2023-06-22T03:42:36;22.70;99.90
40758;DHT22;26462;47.384;19.218;2023-06-22T03:45:03;22.70;99.90
40758;DHT22;26462;47.384;19.218;2023-06-22T03:47:31;22.70;99.90
40758;DHT22;26462;47.384;19.218;2023-06-22T03:49:58;22.80;99.90
40758;DHT22;26462;47.384;19.218;2023-06-22T03:52:26;22.80;99.90
40758;DHT22;26462;47.384;19.218;2023-06-22T03:54:53;22.80;99.90
40758;DHT22;26462;47.384;19.218;2023-06-22T03:57:20;22.80;99.90
40758;DHT22;26462;47.384;19.218;2023-06-22T03:59:48;22.80;99.90
40758;DHT22;26462;47.384;19.218;2023-06-22T04:02:15;22.80;99.90
40758;DHT22;26462;47.384;19.218;2023-06-22T04:04:42;22.80;99.90
40758;DHT22;26462;47.384;19.218;2023-06-22T04:07:09;22.90;99.90
40758;DHT22;26462;47.384;19.218;2023-06-22T04:09:37;22.90;99.90
40758;DHT22;26462;47.384;19.218;2023-06-22T04:12:04;22.90;99.90
40758;DHT22;26462;47.384;19.218;2023-06-22T04:14:31;22.90;99.90
40758;DHT22;26462;47.384;19.218;2023-06-22T04:16:58;22.90;99.90
40758;DHT22;26462;47.384;19.218;2023-06-22T04:19:25;23.00;99.90
40758;DHT22;26462;47.384;19.218;2023-06-22T04:21:53;23.00;99.90
40758;DHT22;26462;47.384;19.218;2023-06-22T04:24:20;23.00;99.90
40758;DHT22;26462;47.384;19.218;2023-06-22T04:26:47;23.10;99.90
40758;DHT22;26462;47.384;19.218;2023-06-22T04:29:14;23.10;99.90
40758;DHT22;26462;47.384;19.218;2023-06-22T04:31:41;23.10;99.90
40758;DHT22;26462;47.384;19.218;2023-06-22T04:34:09;23.20;99.90
40758;DHT22;26462;47.384;19.218;2023-06-22T04:36:38;23.20;99.90
40758;DHT22;26462;47.384;19.218;2023-06-22T04:39:10;23.20;99.90
40758;DHT22;26462;47.384;19.218;2023-06-22T04:41:39;23.20;99.90
40758;DHT22;26462;47.384;19.218;2023-06-22T04:44:18;23.30;99.90
40758;DHT22;26462;47.384;19.218;2023-06-22T04:46:52;23.30;99.90
40758;DHT22;26462;47.384;19.218;2023-06-22T04:49:31;23.40;99.90
40758;DHT22;26462;47.384;19.218;2023-06-22T04:52:03;23.40;99.90
40758;DHT22;26462;47.384;19.218;2023-06-22T04:54:31;23.40;99.90
40758;DHT22;26462;47.384;19.218;2023-06-22T04:57:06;23.40;99.90
40758;DHT22;26462;47.384;19.218;2023-06-22T04:59:41;23.40;99.90
40758;DHT22;26462;47.384;19.218;2023-06-22T05:02:17;23.40;99.90
40758;DHT22;26462;47.384;19.218;2023-06-22T05:04:44;23.40;99.90
40758;DHT22;26462;47.384;19.218;2023-06-22T05:07:12;23.50;99.90
40758;DHT22;26462;47.384;19.218;2023-06-22T05:09:39;23.60;99.90
40758;DHT22;26462;47.384;19.218;2023-06-22T05:12:06;23.70;99.90
40758;DHT22;26462;47.384;19.218;2023-06-22T05:14:37;23.80;99.90
40758;DHT22;26462;47.384;19.218;2023-06-22T05:17:04;23.80;99.90
40758;DHT22;26462;47.384;19.218;2023-06-22T05:19:42;23.90;99.90
40758;DHT22;26462;47.384;19.218;2023-06-22T05:22:15;23.90;99.90
40758;DHT22;26462;47.384;19.218;2023-06-22T05:24:43;23.90;99.90
40758;DHT22;26462;47.384;19.218;2023-06-22T05:27:10;24.00;99.90
40758;DHT22;26462;47.384;19.218;2023-06-22T05:29:37;24.00;99.90
40758;DHT22;26462;47.384;19.218;2023-06-22T05:32:05;24.10;99.90
40758;DHT22;26462;47.384;19.218;2023-06-22T05:34:32;24.10;99.90
40758;DHT22;26462;47.384;19.218;2023-06-22T05:36:59;24.10;99.90
40758;DHT22;26462;47.384;19.218;2023-06-22T05:39:26;24.30;99.90
40758;DHT22;26462;47.384;19.218;2023-06-22T05:41:54;24.30;99.90
40758;DHT22;26462;47.384;19.218;2023-06-22T05:44:21;24.30;99.90
40758;DHT22;26462;47.384;19.218;2023-06-22T05:46:48;24.40;99.90
40758;DHT22;26462;47.384;19.218;2023-06-22T05:49:15;24.50;99.90
40758;DHT22;26462;47.384;19.218;2023-06-22T05:51:43;24.70;99.90
40758;DHT22;26462;47.384;19.218;2023-06-22T05:54:10;24.80;99.90
40758;DHT22;26462;47.384;19.218;2023-06-22T05:56:40;25.00;99.90
40758;DHT22;26462;47.384;19.218;2023-06-22T05:59:07;25.00;99.90
40758;DHT22;26462;47.384;19.218;2023-06-22T06:01:34;25.10;99.90
40758;DHT22;26462;47.384;19.218;2023-06-22T06:04:03;25.00;99.90
40758;DHT22;26462;47.384;19.218;2023-06-22T06:06:31;25.30;99.90
40758;DHT22;26462;47.384;19.218;2023-06-22T06:08:58;25.40;99.90
40758;DHT22;26462;47.384;19.218;2023-06-22T06:11:26;25.60;99.90
40758;DHT22;26462;47.384;19.218;2023-06-22T06:13:54;25.60;99.90
40758;DHT22;26462;47.384;19.218;2023-06-22T06:16:22;25.60;99.90
40758;DHT22;26462;47.384;19.218;2023-06-22T06:18:49;25.70;99.90
40758;DHT22;26462;47.384;19.218;2023-06-22T06:21:17;25.80;99.90
40758;DHT22;26462;47.384;19.218;2023-06-22T06:23:44;25.80;99.90
40758;DHT22;26462;47.384;19.218;2023-06-22T06:26:12;25.90;99.90
40758;DHT22;26462;47.384;19.218;2023-06-22T06:28:39;26.10;99.90
40758;DHT22;26462;47.384;19.218;2023-06-22T06:31:08;26.10;99.30
40758;DHT22;26462;47.384;19.218;2023-06-22T06:33:36;26.10;97.70
40758;DHT22;26462;47.384;19.218;2023-06-22T06:36:03;26.20;98.00
40758;DHT22;26462;47.384;19.218;2023-06-22T06:38:31;26.40;99.90
40758;DHT22;26462;47.384;19.218;2023-06-22T06:40:58;26.50;98.70
40758;DHT22;26462;47.384;19.218;2023-06-22T06:43:25;26.60;98.80
40758;DHT22;26462;47.384;19.218;2023-06-22T06:45:53;26.60;97.50
40758;DHT22;26462;47.384;19.218;2023-06-22T06:48:20;26.80;97.50
40758;DHT22;26462;47.384;19.218;2023-06-22T06:50:47;26.90;96.80
40758;DHT22;26462;47.384;19.218;2023-06-22T06:53:14;26.90;96.20
40758;DHT22;26462;47.384;19.218;2023-06-22T06:55:41;26.90;93.90
40758;DHT22;26462;47.384;19.218;2023-06-22T06:58:09;27.10;94.90
40758;DHT22;26462;47.384;19.218;2023-06-22T07:00:36;27.20;94.10
40758;DHT22;26462;47.384;19.218;2023-06-22T07:03:04;27.30;94.60
40758;DHT22;26462;47.384;19.218;2023-06-22T07:05:31;27.50;93.30
40758;DHT22;26462;47.384;19.218;2023-06-22T07:07:58;27.40;93.80
40758;DHT22;26462;47.384;19.218;2023-06-22T07:10:26;27.40;93.60
40758;DHT22;26462;47.384;19.218;2023-06-22T07:12:54;27.50;92.30
40758;DHT22;26462;47.384;19.218;2023-06-22T07:15:21;27.40;92.00
40758;DHT22;26462;47.384;19.218;2023-06-22T07:17:48;27.60;90.60
40758;DHT22;26462;47.384;19.218;2023-06-22T07:20:16;27.50;90.60
40758;DHT22;26462;47.384;19.218;2023-06-22T07:22:44;27.50;90.50
40758;DHT22;26462;47.384;19.218;2023-06-22T07:25:14;27.60;90.50
40758;DHT22;26462;47.384;19.218;2023-06-22T07:27:57;27.70;91.30
40758;DHT22;26462;47.384;19.218;2023-06-22T07:30:25;27.90;89.90
40758;DHT22;26462;47.384;19.218;2023-06-22T07:32:53;28.00;90.30
40758;DHT22;26462;47.384;19.218;2023-06-22T07:35:20;28.10;90.10
40758;DHT22;26462;47.384;19.218;2023-06-22T07:37:48;28.20;89.30
40758;DHT22;26462;47.384;19.218;2023-06-22T07:40:15;28.40;89.90
40758;DHT22;26462;47.384;19.218;2023-06-22T07:42:42;28.40;88.10
40758;DHT22;26462;47.384;19.218;2023-06-22T07:45:10;28.50;88.90
40758;DHT22;26462;47.384;19.218;2023-06-22T07:47:37;28.50;86.60
40758;DHT22;26462;47.384;19.218;2023-06-22T07:50:05;28.40;86.90
40758;DHT22;26462;47.384;19.218;2023-06-22T07:52:33;28.50;87.90
40758;DHT22;26462;47.384;19.218;2023-06-22T07:55:00;28.50;82.60
40758;DHT22;26462;47.384;19.218;2023-06-22T07:57:27;28.60;84.60
40758;DHT22;26462;47.384;19.218;2023-06-22T08:00:00;28.50;82.70
40758;DHT22;26462;47.384;19.218;2023-06-22T08:02:38;28.60;84.60
40758;DHT22;26462;47.384;19.218;2023-06-22T08:05:06;28.70;84.90
40758;DHT22;26462;47.384;19.218;2023-06-22T08:07:48;28.70;88.10
40758;DHT22;26462;47.384;19.218;2023-06-22T08:10:15;28.80;86.50
40758;DHT22;26462;47.384;19.218;2023-06-22T08:12:42;28.80;86.00
40758;DHT22;26462;47.384;19.218;2023-06-22T08:15:09;28.80;81.80
40758;DHT22;26462;47.384;19.218;2023-06-22T08:17:37;28.70;80.30
40758;DHT22;26462;47.384;19.218;2023-06-22T08:20:06;28.80;83.00
40758;DHT22;26462;47.384;19.218;2023-06-22T08:22:39;29.00;83.90
40758;DHT22;26462;47.384;19.218;2023-06-22T08:25:08;29.10;84.00
40758;DHT22;26462;47.384;19.218;2023-06-22T08:27:36;29.10;82.60
40758;DHT22;26462;47.384;19.218;2023-06-22T08:30:03;29.10;83.70
40758;DHT22;26462;47.384;19.218;2023-06-22T08:32:31;29.10;83.50
40758;DHT22;26462;47.384;19.218;2023-06-22T08:35:00;29.20;84.30
40758;DHT22;26462;47.384;19.218;2023-06-22T08:37:28;29.20;81.40
40758;DHT22;26462;47.384;19.218;2023-06-22T08:40:06;29.30;83.30
40758;DHT22;26462;47.384;19.218;2023-06-22T08:42:40;29.40;83.80
40758;DHT22;26462;47.384;19.218;2023-06-22T08:45:08;29.30;83.20
40758;DHT22;26462;47.384;19.218;2023-06-22T08:47:36;29.30;82.30
40758;DHT22;26462;47.384;19.218;2023-06-22T08:50:04;29.40;84.80
40758;DHT22;26462;47.384;19.218;2023-06-22T08:52:31;29.40;83.80
40758;DHT22;26462;47.384;19.218;2023-06-22T08:54:58;29.40;82.50
40758;DHT22;26462;47.384;19.218;2023-06-22T08:57:28;29.40;81.90
40758;DHT22;26462;47.384;19.218;2023-06-22T08:59:57;29.30;82.10
40758;DHT22;26462;47.384;19.218;2023-06-22T09:02:27;29.50;82.90
40758;DHT22;26462;47.384;19.218;2023-06-22T09:04:58;29.50;83.90
40758;DHT22;26462;47.384;19.218;2023-06-22T09:07:26;29.60;83.20
40758;DHT22;26462;47.384;19.218;2023-06-22T09:09:53;29.60;82.60
40758;DHT22;26462;47.384;19.218;2023-06-22T09:12:21;29.60;83.10
40758;DHT22;26462;47.384;19.218;2023-06-22T09:14:53;29.50;83.70
40758;DHT22;26462;47.384;19.218;2023-06-22T09:17:21;29.60;82.80
40758;DHT22;26462;47.384;19.218;2023-06-22T09:19:49;29.60;82.30
40758;DHT22;26462;47.384;19.218;2023-06-22T09:22:16;29.70;83.00
40758;DHT22;26462;47.384;19.218;2023-06-22T09:24:43;29.60;82.40
40758;DHT22;26462;47.384;19.218;2023-06-22T09:27:10;29.70;83.30
40758;DHT22;26462;47.384;19.218;2023-06-22T09:29:37;29.70;82.10
40758;DHT22;26462;47.384;19.218;2023-06-22T09:32:05;29.80;82.80
40758;DHT22;26462;47.384;19.218;2023-06-22T09:34:32;29.80;79.60
40758;DHT22;26462;47.384;19.218;2023-06-22T09:36:59;29.80;81.00
40758;DHT22;26462;47.384;19.218;2023-06-22T09:39:27;29.80;80.30
40758;DHT22;26462;47.384;19.218;2023-06-22T09:41:54;29.80;81.30
40758;DHT22;26462;47.384;19.218;2023-06-22T09:44:22;29.80;80.50
40758;DHT22;26462;47.384;19.218;2023-06-22T09:46:49;29.70;78.20
40758;DHT22;26462;47.384;19.218;2023-06-22T09:49:16;29.70;80.90
40758;DHT22;26462;47.384;19.218;2023-06-22T09:51:43;29.70;82.10
40758;DHT22;26462;47.384;19.218;2023-06-22T09:54:11;29.70;81.70
40758;DHT22;26462;47.384;19.218;2023-06-22T09:56:38;29.80;82.40
40758;DHT22;26462;47.384;19.218;2023-06-22T09:59:05;29.90;83.30
40758;DHT22;26462;47.384;19.218;2023-06-22T10:01:44;29.90;80.30
40758;DHT22;26462;47.384;19.218;2023-06-22T10:04:11;30.00;80.50
40758;DHT22;26462;47.384;19.218;2023-06-22T10:06:39;29.90;80.10
40758;DHT22;26462;47.384;19.218;2023-06-22T10:09:08;29.80;80.40
40758;DHT22;26462;47.384;19.218;2023-06-22T10:11:35;29.80;79.60
40758;DHT22;26462;47.384;19.218;2023-06-22T10:14:04;29.80;80.40
40758;DHT22;26462;47.384;19.218;2023-06-22T10:16:31;29.80;83.20
40758;DHT22;26462;47.384;19.218;2023-06-22T10:18:59;29.90;83.50
40758;DHT22;26462;47.384;19.218;2023-06-22T10:21:26;29.90;80.40
40758;DHT22;26462;47.384;19.218;2023-06-22T10:23:55;29.90;80.60
40758;DHT22;26462;47.384;19.218;2023-06-22T10:26:22;29.80;80.50
40758;DHT22;26462;47.384;19.218;2023-06-22T10:28:50;29.90;82.60
40758;DHT22;26462;47.384;19.218;2023-06-22T10:31:26;30.00;80.70
40758;DHT22;26462;47.384;19.218;2023-06-22T10:33:55;29.90;79.10
40758;DHT22;26462;47.384;19.218;2023-06-22T10:36:22;30.00;80.20
40758;DHT22;26462;47.384;19.218;2023-06-22T10:38:49;29.90;78.90
40758;DHT22;26462;47.384;19.218;2023-06-22T10:41:16;29.90;78.70
40758;DHT22;26462;47.384;19.218;2023-06-22T10:43:44;29.90;80.40
40758;DHT22;26462;47.384;19.218;2023-06-22T10:46:11;30.00;79.80
40758;DHT22;26462;47.384;19.218;2023-06-22T10:48:38;30.00;79.00
40758;DHT22;26462;47.384;19.218;2023-06-22T10:51:05;29.90;79.30
40758;DHT22;26462;47.384;19.218;2023-06-22T10:53:32;29.90;79.70
40758;DHT22;26462;47.384;19.218;2023-06-22T10:55:59;30.00;81.20
40758;DHT22;26462;47.384;19.218;2023-06-22T10:58:27;30.10;80.30
40758;DHT22;26462;47.384;19.218;2023-06-22T11:00:54;30.10;78.80
40758;DHT22;26462;47.384;19.218;2023-06-22T11:03:21;30.10;78.20
40758;DHT22;26462;47.384;19.218;2023-06-22T11:05:48;30.00;79.80
40758;DHT22;26462;47.384;19.218;2023-06-22T11:08:15;30.10;78.70
40758;DHT22;26462;47.384;19.218;2023-06-22T11:10:43;30.10;80.00
40758;DHT22;26462;47.384;19.218;2023-06-22T11:13:11;30.00;77.20
40758;DHT22;26462;47.384;19.218;2023-06-22T11:15:39;30.00;78.00
40758;DHT22;26462;47.384;19.218;2023-06-22T11:18:06;30.10;78.40
40758;DHT22;26462;47.384;19.218;2023-06-22T11:20:34;30.20;81.00
40758;DHT22;26462;47.384;19.218;2023-06-22T11:23:05;30.20;81.20
40758;DHT22;26462;47.384;19.218;2023-06-22T11:25:33;30.20;80.20
40758;DHT22;26462;47.384;19.218;2023-06-22T11:28:04;30.10;77.80
40758;DHT22;26462;47.384;19.218;2023-06-22T11:30:32;30.10;80.10
40758;DHT22;26462;47.384;19.218;2023-06-22T11:32:59;30.10;79.70
40758;DHT22;26462;47.384;19.218;2023-06-22T11:35:27;30.10;77.90
40758;DHT22;26462;47.384;19.218;2023-06-22T11:37:54;30.10;79.60
40758;DHT22;26462;47.384;19.218;2023-06-22T11:40:23;30.20;80.80
40758;DHT22;26462;47.384;19.218;2023-06-22T11:42:50;30.20;76.90
40758;DHT22;26462;47.384;19.218;2023-06-22T11:45:17;30.10;77.50
40758;DHT22;26462;47.384;19.218;2023-06-22T11:47:45;30.20;79.40
40758;DHT22;26462;47.384;19.218;2023-06-22T11:50:12;30.30;78.10
40758;DHT22;26462;47.384;19.218;2023-06-22T11:52:39;30.30;79.90
40758;DHT22;26462;47.384;19.218;2023-06-22T11:55:06;30.40;79.20
40758;DHT22;26462;47.384;19.218;2023-06-22T11:57:36;30.40;80.10
40758;DHT22;26462;47.384;19.218;2023-06-22T12:00:04;30.30;77.90
40758;DHT22;26462;47.384;19.218;2023-06-22T12:02:42;30.30;77.90
40758;DHT22;26462;47.384;19.218;2023-06-22T12:05:10;30.40;79.00
40758;DHT22;26462;47.384;19.218;2023-06-22T12:07:37;30.50;78.90
40758;DHT22;26462;47.384;19.218;2023-06-22T12:10:05;30.40;75.90
40758;DHT22;26462;47.384;19.218;2023-06-22T12:12:32;30.40;76.50
40758;DHT22;26462;47.384;19.218;2023-06-22T12:14:59;30.40;78.20
40758;DHT22;26462;47.384;19.218;2023-06-22T12:17:30;30.40;75.40
40758;DHT22;26462;47.384;19.218;2023-06-22T12:19:58;30.50;74.60
40758;DHT22;26462;47.384;19.218;2023-06-22T12:22:25;30.40;74.50
40758;DHT22;26462;47.384;19.218;2023-06-22T12:24:53;30.40;76.90
40758;DHT22;26462;47.384;19.218;2023-06-22T12:27:20;30.40;77.30
40758;DHT22;26462;47.384;19.218;2023-06-22T12:29:47;30.50;74.60
40758;DHT22;26462;47.384;19.218;2023-06-22T12:32:15;30.50;76.10
40758;DHT22;26462;47.384;19.218;2023-06-22T12:34:42;30.50;73.60
40758;DHT22;26462;47.384;19.218;2023-06-22T12:37:10;30.50;72.40
40758;DHT22;26462;47.384;19.218;2023-06-22T12:39:39;30.50;74.00
40758;DHT22;26462;47.384;19.218;2023-06-22T12:42:07;30.60;71.10
40758;DHT22;26462;47.384;19.218;2023-06-22T12:44:37;30.50;72.30
40758;DHT22;26462;47.384;19.218;2023-06-22T12:47:04;30.50;70.30
40758;DHT22;26462;47.384;19.218;2023-06-22T12:49:31;30.40;72.50
40758;DHT22;26462;47.384;19.218;2023-06-22T12:51:59;30.50;75.30
40758;DHT22;26462;47.384;19.218;2023-06-22T12:54:26;30.60;75.00
40758;DHT22;26462;47.384;19.218;2023-06-22T12:56:53;30.70;74.70
40758;DHT22;26462;47.384;19.218;2023-06-22T12:59:22;30.60;70.60
40758;DHT22;26462;47.384;19.218;2023-06-22T13:01:49;30.60;72.10
40758;DHT22;26462;47.384;19.218;2023-06-22T13:04:16;30.60;71.90
40758;DHT22;26462;47.384;19.218;2023-06-22T13:06:45;30.60;71.20
40758;DHT22;26462;47.384;19.218;2023-06-22T13:09:19;30.60;72.00
40758;DHT22;26462;47.384;19.218;2023-06-22T13:11:47;30.70;71.80
40758;DHT22;26462;47.384;19.218;2023-06-22T13:14:15;30.60;72.10
40758;DHT22;26462;47.384;19.218;2023-06-22T13:16:43;30.70;71.80
40758;DHT22;26462;47.384;19.218;2023-06-22T13:19:10;30.60;70.70
40758;DHT22;26462;47.384;19.218;2023-06-22T13:21:37;30.70;69.20
40758;DHT22;26462;47.384;19.218;2023-06-22T13:24:05;30.70;71.40
40758;DHT22;26462;47.384;19.218;2023-06-22T13:26:33;30.70;66.60
40758;DHT22;26462;47.384;19.218;2023-06-22T13:29:00;30.70;67.40
40758;DHT22;26462;47.384;19.218;2023-06-22T13:31:27;30.70;70.20
40758;DHT22;26462;47.384;19.218;2023-06-22T13:33:54;30.80;70.50
40758;DHT22;26462;47.384;19.218;2023-06-22T13:36:22;30.80;68.90
40758;DHT22;26462;47.384;19.218;2023-06-22T13:38:50;30.80;70.10
40758;DHT22;26462;47.384;19.218;2023-06-22T13:41:17;30.80;69.80
40758;DHT22;26462;47.384;19.218;2023-06-22T13:43:44;30.80;69.60
40758;DHT22;26462;47.384;19.218;2023-06-22T13:46:12;30.80;72.70
40758;DHT22;26462;47.384;19.218;2023-06-22T13:48:39;30.70;72.30
40758;DHT22;26462;47.384;19.218;2023-06-22T13:51:06;30.80;71.50
40758;DHT22;26462;47.384;19.218;2023-06-22T13:53:33;30.80;71.30
40758;DHT22;26462;47.384;19.218;2023-06-22T13:56:00;30.80;71.70
40758;DHT22;26462;47.384;19.218;2023-06-22T13:58:27;30.80;71.40
40758;DHT22;26462;47.384;19.218;2023-06-22T14:00:54;30.80;72.00
40758;DHT22;26462;47.384;19.218;2023-06-22T14:03:23;30.70;69.50
40758;DHT22;26462;47.384;19.218;2023-06-22T14:05:50;30.70;70.20
40758;DHT22;26462;47.384;19.218;2023-06-22T14:08:21;30.80;73.40
40758;DHT22;26462;47.384;19.218;2023-06-22T14:10:53;30.80;73.80
40758;DHT22;26462;47.384;19.218;2023-06-22T14:13:21;30.90;73.00
40758;DHT22;26462;47.384;19.218;2023-06-22T14:15:48;30.80;73.50
40758;DHT22;26462;47.384;19.218;2023-06-22T14:18:15;30.90;74.50
40758;DHT22;26462;47.384;19.218;2023-06-22T14:20:43;31.00;74.50
40758;DHT22;26462;47.384;19.218;2023-06-22T14:23:10;31.00;74.00
40758;DHT22;26462;47.384;19.218;2023-06-22T14:25:37;31.00;74.80
40758;DHT22;26462;47.384;19.218;2023-06-22T14:28:04;31.00;71.20
40758;DHT22;26462;47.384;19.218;2023-06-22T14:30:32;30.90;73.50
40758;DHT22;26462;47.384;19.218;2023-06-22T14:32:59;31.00;74.40
40758;DHT22;26462;47.384;19.218;2023-06-22T14:35:26;30.80;73.00
40758;DHT22;26462;47.384;19.218;2023-06-22T14:37:53;30.80;74.80
40758;DHT22;26462;47.384;19.218;2023-06-22T14:40:20;30.70;75.20
40758;DHT22;26462;47.384;19.218;2023-06-22T14:42:52;30.80;75.60
40758;DHT22;26462;47.384;19.218;2023-06-22T14:45:19;30.80;75.40
40758;DHT22;26462;47.384;19.218;2023-06-22T14:47:46;30.70;74.60
40758;DHT22;26462;47.384;19.218;2023-06-22T14:50:13;30.70;74.40
40758;DHT22;26462;47.384;19.218;2023-06-22T14:52:43;30.70;74.50
40758;DHT22;26462;47.384;19.218;2023-06-22T14:55:10;30.80;73.00
40758;DHT22;26462;47.384;19.218;2023-06-22T14:57:37;30.70;73.40
40758;DHT22;26462;47.384;19.218;2023-06-22T15:00:05;30.70;73.60
40758;DHT22;26462;47.384;19.218;2023-06-22T15:02:33;30.70;73.80
40758;DHT22;26462;47.384;19.218;2023-06-22T15:05:01;30.70;72.40
40758;DHT22;26462;47.384;19.218;2023-06-22T15:07:28;30.60;74.40
40758;DHT22;26462;47.384;19.218;2023-06-22T15:09:55;30.60;73.60
40758;DHT22;26462;47.384;19.218;2023-06-22T15:12:22;30.60;74.30
40758;DHT22;26462;47.384;19.218;2023-06-22T15:14:50;30.60;73.10
40758;DHT22;26462;47.384;19.218;2023-06-22T15:17:17;30.50;73.20
40758;DHT22;26462;47.384;19.218;2023-06-22T15:19:44;30.50;74.70
40758;DHT22;26462;47.384;19.218;2023-06-22T15:22:11;30.60;73.60
40758;DHT22;26462;47.384;19.218;2023-06-22T15:24:38;30.50;75.20
40758;DHT22;26462;47.384;19.218;2023-06-22T15:27:05;30.50;73.90
40758;DHT22;26462;47.384;19.218;2023-06-22T15:29:33;30.50;74.40